Flight Track Log - Related Links

Times and Time Zones

All times are in EDT time to prevent confusion due to time zone crossing. See the UPS1121 flight status page for this flight to view local times or setup timezone preferences in your user account.

Time Position Orientation Groundspeed Altitude Reporting Facility
EDT Latitude Longitude Course Direction KTS MPH feet Rate Location/Type
Fri 09:37:39 PM 42.7278 -73.8081 161° South 167 192 1,900  Level Boston Center
Fri 09:38:16 PM 42.6967 -73.7933 161° South 204 235 3,200 2,556 Climbing Boston Center
Fri 09:39:27 PM 42.6475 -73.7103 129° Southeast 272 313 6,500 3,252 Climbing Boston Center
Fri 09:40:27 PM 42.5883 -73.6103 129° Southeast 305 351 10,300 2,250 Climbing Boston Center
Fri 09:41:27 PM 42.5350 -73.5219 129° Southeast 328 377 11,000 500 Climbing Boston Center
Fri 09:41:51 PM 42.5061 -73.4736 129° Southeast 354 407 11,000  Level Boston Center
Fri 09:42:39 PM 42.4506 -73.3911 132° Southeast 355 409 11,000  Level Boston Center
Fri 09:42:58 PM 42.4258 -73.3597 137° Southeast 359 413 11,000  Level Boston Center
Fri 09:43:39 PM 42.3806 -73.2944 133° Southeast 361 415 11,000  Level Boston Center
Fri 09:43:59 PM 42.3558 -73.2633 137° Southeast 360 414 11,000  Level Boston Center
Fri 09:44:39 PM 42.3331 -73.2264 130° Southeast 356 410 11,000 -300 Level Boston Center
Fri 09:44:59 PM 42.2814 -73.1725 142° Southeast 360 414 10,700 -900 Descending Boston Center
Fri 09:45:39 PM 42.2356 -73.1383 151° Southeast 356 410 10,100 -689 Descending Boston Center
Fri 09:46:00 PM 42.1983 -73.1183 158° South 331 381 10,000 -1,000 Descending Boston Center
Fri 09:46:39 PM 42.1486 -73.0842 153° Southeast 326 375 9,100 -1,377 Descending Boston Center
Fri 09:47:01 PM 42.1214 -73.0697 159° South 308 354 8,600 -1,400 Descending Boston Center
Fri 09:47:39 PM 42.0800 -73.0386 151° Southeast 310 357 7,700 -1,500 Descending Boston Center
Fri 09:48:01 PM 42.0383 -73.0158 158° South 304 350 7,100 -1,400 Descending Boston Center
Fri 09:48:39 PM 41.9989 -72.9903 154° Southeast 304 350 6,300 -1,309 Descending Boston Center
Fri 09:48:56 PM 41.9719 -72.9733 155° Southeast 296 341 5,900 -1,400 Descending Boston Center
Fri 09:49:39 PM 41.9219 -72.9450 157° South 304 350 4,900 -1,600 Descending Boston Center
Fri 09:49:56 PM 41.8969 -72.9308 157° South 296 341 4,300 -1,700 Descending Boston Center
Fri 09:50:39 PM 41.8492 -72.8972 152° Southeast 299 344 3,200 -1,377 Descending Boston Center
Fri 09:50:57 PM 41.8306 -72.8775 142° Southeast 272 313 2,900 -900 Descending Boston Center
Fri 09:51:39 PM 41.8308 -72.8217 90° East 215 247 2,300 -787 Descending Boston Center
Fri 09:51:58 PM 41.8497 -72.8081 28° Northeast 209 241 2,100 -500 Descending Boston Center
Fri 09:52:39 PM 41.8706 -72.7747 50° Northeast 145 167 1,800 -500 Descending Boston Center
Fri 09:52:58 PM 41.8789 -72.7692 26° Northeast 146 168 1,600 -500 Descending Boston Center
Fri 09:53:39 PM 41.8956 -72.7442 48° Northeast 124 143 1,300 -590 Descending Boston Center
Fri 09:53:59 PM 41.9019 -72.7386 33° Northeast 117 135 1,000 -700 Descending Boston Center
Fri 09:54:39 PM 41.9208 -72.7164 41° Northeast 118 136 600 -689 Descending Boston Center
Fri 09:55:00 PM 41.9292 -72.7025 51° Northeast 121 139 300 -200 Descending Boston Center
Fri 09:55:39 PM 41.9375 -72.6883 52° Northeast 113 130 400 154 Climbing Boston Center

Login

Don't have an account? Register now (free) for customized features, flight alerts, and more!